createdAt,value
2022-11-24T00:01:21.675Z,99404.75
2022-11-24T00:04:29.639Z,99404.75
2022-11-24T00:07:39.627Z,99411.75
2022-11-24T00:10:47.640Z,99408.38
2022-11-24T00:13:57.886Z,99409.19
2022-11-24T00:17:12.695Z,99406.34
2022-11-24T00:20:21.680Z,99404.00
2022-11-24T00:23:36.682Z,99410.31
2022-11-24T00:26:44.707Z,99412.03
2022-11-24T00:29:53.305Z,99416.59
2022-11-24T00:33:01.689Z,99422.91
2022-11-24T00:43:39.657Z,99432.88
2022-11-24T00:46:54.723Z,99433.62
2022-11-24T00:50:03.702Z,99442.13
2022-11-24T00:53:18.699Z,99439.28
2022-11-24T00:56:26.722Z,99447.97
2022-11-24T00:59:38.315Z,99447.47
2022-11-24T01:02:46.736Z,99446.09
2022-11-24T01:06:20.688Z,99449.53
2022-11-24T01:09:29.638Z,99452.97
2022-11-24T01:12:38.271Z,99450.56
2022-11-24T01:15:46.712Z,99449.97
2022-11-24T01:19:02.720Z,99448.81
2022-11-24T01:22:11.754Z,99455.00
2022-11-24T01:25:26.662Z,99458.22
2022-11-24T01:28:47.174Z,99457.22
2022-11-24T01:31:56.385Z,99454.00
2022-11-24T01:35:04.689Z,99459.22
2022-11-24T01:38:19.719Z,99455.16
2022-11-24T01:41:30.667Z,99459.97
2022-11-24T01:44:47.686Z,99455.75
2022-11-24T01:47:55.718Z,99470.31
2022-11-24T01:51:17.674Z,99458.06
2022-11-24T01:54:26.768Z,99470.03
2022-11-24T01:57:47.701Z,99466.84
2022-11-24T02:00:50.961Z,99468.00
2022-11-24T02:04:07.714Z,99467.22
2022-11-24T02:07:12.454Z,99465.69
2022-11-24T02:10:28.686Z,99465.22
2022-11-24T02:13:37.698Z,99462.88
2022-11-24T02:16:55.713Z,99463.41
2022-11-24T02:20:07.707Z,99472.25
2022-11-24T02:23:37.464Z,99468.41
2022-11-24T02:26:52.714Z,99461.41
2022-11-24T02:30:01.395Z,99462.00
2022-11-24T02:33:18.701Z,99465.63
2022-11-24T02:36:33.720Z,99470.66
2022-11-24T02:39:48.698Z,99469.06
2022-11-24T02:42:54.358Z,99472.94
2022-11-24T02:46:08.754Z,99469.50
2022-11-24T02:49:16.706Z,99469.91
2022-11-24T02:52:32.736Z,99473.84
2022-11-24T02:55:34.492Z,99468.91
2022-11-24T02:58:48.773Z,99473.34
2022-11-24T03:01:51.021Z,99477.28
2022-11-24T03:05:05.716Z,99475.31
2022-11-24T03:08:13.745Z,99477.38
2022-11-24T03:11:28.731Z,99480.84
2022-11-24T03:14:39.243Z,99483.50
2022-11-24T03:17:48.690Z,99482.34
2022-11-24T03:20:57.723Z,99492.84
2022-11-24T03:24:06.340Z,99498.25
2022-11-24T03:27:14.771Z,99496.59
2022-11-24T03:30:29.784Z,99503.69
2022-11-24T03:33:31.584Z,99494.59
2022-11-24T03:36:46.759Z,99504.38
2022-11-24T03:39:55.737Z,99497.22
2022-11-24T03:43:04.453Z,99504.31
2022-11-24T03:46:12.769Z,99508.84
2022-11-24T03:49:27.774Z,99502.81
2022-11-24T03:52:30.686Z,99502.59
2022-11-24T03:55:45.742Z,99505.50
2022-11-24T03:58:47.556Z,99499.88
2022-11-24T04:02:02.830Z,99504.38
2022-11-24T04:05:18.763Z,99504.81
2022-11-24T04:08:27.286Z,99511.41
2022-11-24T04:11:35.758Z,99512.59
2022-11-24T04:14:50.751Z,99513.28
2022-11-24T04:18:01.728Z,99516.78
2022-11-24T04:21:10.313Z,99526.69
2022-11-24T04:24:21.782Z,99524.62
2022-11-24T04:27:38.734Z,99532.81
2022-11-24T04:30:47.832Z,99536.84
2022-11-24T04:33:56.441Z,99538.66
2022-11-24T04:37:04.739Z,99533.19
2022-11-24T04:40:13.522Z,99539.50
2022-11-24T04:43:21.798Z,99547.22
2022-11-24T04:46:36.864Z,99559.19
2022-11-24T04:49:47.734Z,99557.84
2022-11-24T04:53:02.799Z,99565.72
2022-11-24T04:56:06.117Z,99565.09
2022-11-24T04:59:20.774Z,99575.38
2022-11-24T05:02:29.485Z,99576.63
2022-11-24T05:05:44.826Z,99575.19
2022-11-24T05:08:53.383Z,99580.88
2022-11-24T05:12:01.780Z,99588.72
2022-11-24T05:15:10.706Z,99584.44
2022-11-24T05:18:20.829Z,99599.75
2022-11-24T05:21:35.805Z,99600.00
2022-11-24T05:24:50.813Z,99602.84
2022-11-24T05:28:01.499Z,99606.50
2022-11-24T05:31:10.864Z,99604.28
2022-11-24T05:34:19.434Z,99609.97
2022-11-24T05:37:27.866Z,99605.34
2022-11-24T05:40:43.837Z,99614.06
2022-11-24T05:43:51.848Z,99614.63
2022-11-24T05:47:06.841Z,99618.97
2022-11-24T05:50:18.491Z,99623.34
2022-11-24T05:53:26.798Z,99620.50
2022-11-24T05:56:35.415Z,99620.09
2022-11-24T05:59:43.787Z,99631.88
2022-11-24T06:02:52.634Z,99639.84
2022-11-24T06:06:07.785Z,99632.44
2022-11-24T06:09:16.626Z,99631.44
2022-11-24T06:12:31.817Z,99625.78
2022-11-24T06:15:40.401Z,99630.28
2022-11-24T06:18:48.815Z,99626.47
2022-11-24T06:21:57.593Z,99627.31
2022-11-24T06:25:05.810Z,99637.88
2022-11-24T06:28:20.879Z,99656.78
2022-11-24T06:31:22.749Z,99655.75
2022-11-24T06:34:37.822Z,99661.09
2022-11-24T06:37:46.388Z,99667.56
2022-11-24T06:40:54.898Z,99674.69
2022-11-24T06:44:10.890Z,99676.66
2022-11-24T06:47:25.798Z,99681.06
2022-11-24T06:50:33.968Z,99683.31
2022-11-24T06:53:48.846Z,99683.31
2022-11-24T06:56:56.344Z,99689.44
2022-11-24T07:00:12.858Z,99696.84
2022-11-24T07:03:35.197Z,99704.00
2022-11-24T07:06:50.851Z,99707.97
2022-11-24T07:10:05.902Z,99707.25
2022-11-24T07:13:14.410Z,99719.00
2022-11-24T07:16:25.935Z,99719.66
2022-11-24T07:19:40.864Z,99732.72
2022-11-24T07:22:49.802Z,99734.41
2022-11-24T07:26:01.211Z,99742.72
2022-11-24T07:29:20.847Z,99731.22
2022-11-24T07:32:28.843Z,99738.31
2022-11-24T07:35:43.876Z,99740.88
2022-11-24T07:38:52.921Z,99743.78
2022-11-24T07:42:01.729Z,99755.53
2022-11-24T07:45:09.957Z,99755.78
2022-11-24T07:48:18.428Z,99751.56
2022-11-24T07:51:26.878Z,99753.12
2022-11-24T07:54:41.839Z,99754.44
2022-11-24T07:57:49.867Z,99762.66
2022-11-24T08:01:05.967Z,99765.53
2022-11-24T08:04:08.240Z,99764.69
2022-11-24T08:07:29.928Z,99771.59
2022-11-24T08:10:32.197Z,99761.69
2022-11-24T08:13:47.905Z,99763.91
2022-11-24T08:16:55.968Z,99760.50
2022-11-24T08:20:05.174Z,99766.41
2022-11-24T08:23:13.910Z,99766.84
2022-11-24T08:26:29.844Z,99768.06
2022-11-24T08:29:37.882Z,99771.03
2022-11-24T08:32:52.927Z,99776.75
2022-11-24T08:35:58.143Z,99776.81
2022-11-24T08:39:13.014Z,99784.19
2022-11-24T08:42:21.626Z,99763.59
2022-11-24T08:45:41.418Z,99789.59
2022-11-24T08:48:53.446Z,99786.34
2022-11-24T08:52:04.935Z,99800.16
2022-11-24T08:55:13.582Z,99802.16
2022-11-24T08:58:21.918Z,99791.44
2022-11-24T09:01:38.068Z,99790.94
2022-11-24T09:04:52.976Z,99797.75
2022-11-24T09:08:04.678Z,99805.91
2022-11-24T09:11:16.926Z,99807.75
2022-11-24T09:14:25.752Z,99809.09
2022-11-24T09:17:33.899Z,99806.22
2022-11-24T09:20:42.845Z,99815.06
2022-11-24T09:23:54.141Z,99808.00
2022-11-24T09:27:02.501Z,99819.84
2022-11-24T09:30:11.172Z,99821.38
2022-11-24T09:33:20.742Z,99813.09
2022-11-24T09:36:35.920Z,99814.66
2022-11-24T09:39:44.626Z,99825.31
2022-11-24T09:43:10.115Z,99826.81
2022-11-24T09:46:39.032Z,99830.75
2022-11-24T09:50:06.011Z,99833.41
2022-11-24T09:53:36.009Z,99814.25
2022-11-24T09:57:06.131Z,99824.63
2022-11-24T10:00:22.000Z,99824.00
2022-11-24T10:03:46.165Z,99827.00
2022-11-24T10:07:29.245Z,99827.19
2022-11-24T10:10:49.884Z,99823.88
2022-11-24T10:14:29.920Z,99832.09
2022-11-24T10:17:56.960Z,99824.16
2022-11-24T10:21:31.894Z,99829.69
2022-11-24T10:25:05.007Z,99821.09
2022-11-24T10:28:13.290Z,99830.50
2022-11-24T10:31:42.975Z,99816.69
2022-11-24T10:34:53.882Z,99822.53
2022-11-24T10:38:30.521Z,99827.03
2022-11-24T10:41:57.929Z,99833.84
2022-11-24T10:45:14.545Z,99837.59
2022-11-24T10:48:31.963Z,99841.28
2022-11-24T10:52:06.003Z,99832.00
2022-11-24T10:55:15.994Z,99850.09
2022-11-24T10:58:31.552Z,99850.19
2022-11-24T11:01:43.045Z,99853.00
2022-11-24T11:05:25.994Z,99833.56
2022-11-24T11:08:34.679Z,99860.47
2022-11-24T11:11:49.202Z,99858.16
2022-11-24T11:14:51.327Z,99869.63
2022-11-24T11:18:08.991Z,99872.50
2022-11-24T11:21:37.920Z,99865.97
2022-11-24T11:24:49.042Z,99868.09
2022-11-24T11:28:18.703Z,99867.75
2022-11-24T11:31:28.453Z,99875.75
2022-11-24T11:34:37.172Z,99874.31
2022-11-24T11:37:46.034Z,99887.66
2022-11-24T11:41:00.966Z,99894.75
2022-11-24T11:44:34.343Z,99895.56
2022-11-24T11:48:09.232Z,99896.06
2022-11-24T11:51:38.089Z,99888.00
2022-11-24T11:55:21.035Z,99894.56
2022-11-24T11:58:46.687Z,99895.00
2022-11-24T12:02:20.180Z,99887.78
2022-11-24T12:05:54.028Z,99887.19
2022-11-24T12:09:22.114Z,99884.66
2022-11-24T12:13:10.003Z,99882.97
2022-11-24T12:16:35.084Z,99888.38
2022-11-24T12:20:02.017Z,99873.78
2022-11-24T12:23:37.998Z,99879.91
2022-11-24T12:27:00.151Z,99885.56
2022-11-24T12:30:20.114Z,99875.78
2022-11-24T12:33:52.327Z,99879.94
2022-11-24T12:37:19.766Z,99878.47
2022-11-24T12:40:55.230Z,99884.94
2022-11-24T12:44:48.983Z,99883.47
2022-11-24T12:48:21.985Z,99892.72
2022-11-24T12:51:31.317Z,99908.66
2022-11-24T12:54:50.075Z,99895.94
2022-11-24T12:58:10.641Z,99892.72
2022-11-24T13:01:48.368Z,99895.47
2022-11-24T13:05:08.136Z,99890.84
2022-11-24T13:08:17.432Z,99891.56
2022-11-24T13:11:41.134Z,99892.91
2022-11-24T13:14:57.012Z,99908.19
2022-11-24T13:18:07.185Z,99908.41
2022-11-24T13:21:38.062Z,99916.13
2022-11-24T13:25:19.031Z,99917.22
2022-11-24T13:29:01.881Z,99911.28
2022-11-24T13:32:58.078Z,99924.34
2022-11-24T13:36:38.116Z,99922.97
2022-11-24T13:39:58.129Z,99930.56
2022-11-24T13:43:20.435Z,99928.31
2022-11-24T13:46:58.676Z,99939.37
2022-11-24T13:50:17.086Z,99932.81
2022-11-24T13:53:42.078Z,99922.38
2022-11-24T13:56:43.832Z,99932.69
2022-11-24T14:00:08.171Z,99922.09
2022-11-24T14:03:27.117Z,99942.59
2022-11-24T14:06:55.106Z,99949.22
2022-11-24T14:09:57.926Z,99957.00
2022-11-24T14:13:37.086Z,99949.94
2022-11-24T14:16:45.892Z,99961.09
2022-11-24T14:19:57.146Z,99966.38
2022-11-24T14:23:17.094Z,99959.97
2022-11-24T14:26:32.634Z,99965.66
2022-11-24T14:30:02.176Z,99971.91
2022-11-24T14:33:18.093Z,99962.19
2022-11-24T14:36:33.113Z,99958.06
2022-11-24T14:39:42.985Z,99976.03
2022-11-24T14:42:57.058Z,99971.91
2022-11-24T14:46:09.765Z,99981.38
2022-11-24T14:49:25.066Z,99974.34
2022-11-24T14:52:41.082Z,99984.56
2022-11-24T14:55:43.214Z,99997.59
2022-11-24T14:58:59.317Z,100002.91
2022-11-24T15:02:34.173Z,100007.31
2022-11-24T15:06:01.038Z,100023.03
2022-11-24T15:09:29.080Z,100028.28
2022-11-24T15:12:55.109Z,100027.00
2022-11-24T15:16:03.181Z,100018.56
2022-11-24T15:19:23.138Z,100029.38
2022-11-24T15:22:45.858Z,100039.94
2022-11-24T15:26:03.063Z,100049.16
2022-11-24T15:29:12.945Z,100053.41
2022-11-24T15:32:22.086Z,100048.38
2022-11-24T15:35:32.728Z,100054.53
2022-11-24T15:38:41.239Z,100048.59
2022-11-24T15:41:56.116Z,100057.75
2022-11-24T15:44:57.987Z,100058.09
2022-11-24T15:48:17.759Z,100057.94
2022-11-24T15:51:27.150Z,100052.16
2022-11-24T15:54:35.926Z,100066.88
2022-11-24T15:57:44.057Z,100058.91
2022-11-24T16:00:52.745Z,100072.81
2022-11-24T16:04:08.090Z,100071.94
2022-11-24T16:07:19.127Z,100077.53
2022-11-24T16:10:38.090Z,100069.56
2022-11-24T16:13:40.255Z,100080.00
2022-11-24T16:16:55.081Z,100087.38
2022-11-24T16:20:03.166Z,100081.88
2022-11-24T16:23:18.187Z,100088.66
2022-11-24T16:26:33.155Z,100086.38
2022-11-24T16:29:38.327Z,100087.38
2022-11-24T16:32:53.105Z,100086.97
2022-11-24T16:36:01.164Z,100076.00
2022-11-24T16:39:09.818Z,100084.84
2022-11-24T16:42:18.537Z,100098.50
2022-11-24T16:45:38.466Z,100105.94
2022-11-24T16:48:51.420Z,100094.69
2022-11-24T16:52:00.094Z,100100.34
2022-11-24T16:55:09.155Z,100102.59
2022-11-24T16:58:25.105Z,100095.69
2022-11-24T17:01:27.277Z,100089.50
2022-11-24T17:04:42.143Z,100100.75
2022-11-24T17:07:50.443Z,100107.94
2022-11-24T17:11:11.401Z,100113.41
2022-11-24T17:14:26.190Z,100121.28
2022-11-24T17:17:28.238Z,100122.13
2022-11-24T17:20:43.160Z,100126.62
2022-11-24T17:23:45.340Z,100127.19
2022-11-24T17:27:00.131Z,100130.72
2022-11-24T17:30:08.121Z,100133.78
2022-11-24T17:33:16.762Z,100132.25
2022-11-24T17:36:32.124Z,100140.66
2022-11-24T17:39:34.002Z,100149.13
2022-11-24T17:42:49.286Z,100152.78
2022-11-24T17:46:01.340Z,100140.41
2022-11-24T17:49:16.210Z,100152.47
2022-11-24T17:52:18.126Z,100159.25
2022-11-24T17:55:33.202Z,100157.28
2022-11-24T17:58:41.323Z,100164.84
2022-11-24T18:01:58.299Z,100174.69
2022-11-24T18:05:07.174Z,100177.62
2022-11-24T18:08:29.193Z,100178.63
2022-11-24T18:11:38.200Z,100169.06
2022-11-24T18:14:53.297Z,100187.16
2022-11-24T18:18:02.234Z,100192.94
2022-11-24T18:21:16.321Z,100202.75
2022-11-24T18:24:25.158Z,100204.13
2022-11-24T18:27:33.747Z,100201.59
2022-11-24T18:30:43.186Z,100200.75
2022-11-24T18:33:51.805Z,100204.13
2022-11-24T18:37:00.167Z,100209.19
2022-11-24T18:40:16.204Z,100206.91
2022-11-24T18:43:17.963Z,100212.25
2022-11-24T18:46:33.237Z,100205.22
2022-11-24T18:49:35.272Z,100210.13
2022-11-24T18:52:57.197Z,100209.84
2022-11-24T18:56:13.158Z,100219.97
2022-11-24T18:59:21.277Z,100210.84
2022-11-24T19:02:29.946Z,100225.88
2022-11-24T19:05:47.237Z,100224.03
2022-11-24T19:09:04.225Z,100228.91
2022-11-24T19:12:13.797Z,100229.53
2022-11-24T19:15:22.165Z,100228.41
2022-11-24T19:18:30.934Z,100246.25
2022-11-24T19:21:42.192Z,100247.22
2022-11-24T19:24:50.814Z,100249.44
2022-11-24T19:27:59.196Z,100260.16
2022-11-24T19:31:10.905Z,100262.28
2022-11-24T19:34:19.169Z,100265.03
2022-11-24T19:37:28.546Z,100266.00
2022-11-24T19:40:37.199Z,100272.03
2022-11-24T19:43:53.182Z,100274.13
2022-11-24T19:47:01.155Z,100280.06
2022-11-24T19:50:17.195Z,100276.91
2022-11-24T19:53:19.046Z,100275.94
2022-11-24T19:56:37.230Z,100287.94
2022-11-24T19:59:52.198Z,100302.63
2022-11-24T20:03:01.311Z,100300.44
2022-11-24T20:06:23.268Z,100295.88
2022-11-24T20:09:38.238Z,100306.03
2022-11-24T20:12:53.193Z,100302.53
2022-11-24T20:16:01.322Z,100306.56
2022-11-24T20:19:12.481Z,100311.97
2022-11-24T20:22:21.213Z,100317.63
2022-11-24T20:25:36.242Z,100320.16
2022-11-24T20:28:38.399Z,100320.31
2022-11-24T20:31:56.234Z,100333.38
2022-11-24T20:34:57.986Z,100343.94
2022-11-24T20:38:15.222Z,100342.25
2022-11-24T20:41:27.629Z,100350.50
2022-11-24T20:44:42.215Z,100356.03
2022-11-24T20:47:44.061Z,100358.06
2022-11-24T20:50:59.185Z,100359.44
2022-11-24T20:54:04.642Z,100362.97
2022-11-24T20:57:19.478Z,100367.31
2022-11-24T21:00:21.742Z,100365.72
2022-11-24T21:03:39.800Z,100367.56
2022-11-24T21:06:51.741Z,100363.41
2022-11-24T21:10:06.261Z,100368.59
2022-11-24T21:13:08.374Z,100372.13
2022-11-24T21:16:26.276Z,100368.87
2022-11-24T21:19:36.017Z,100370.97
2022-11-24T21:22:51.228Z,100377.72
2022-11-24T21:25:52.967Z,100379.28
2022-11-24T21:29:07.232Z,100385.94
2022-11-24T21:32:15.222Z,100387.97
2022-11-24T21:35:23.789Z,100382.28
2022-11-24T21:38:39.201Z,100377.09
2022-11-24T21:41:48.245Z,100380.03
2022-11-24T21:45:03.218Z,100383.56
2022-11-24T21:48:05.581Z,100382.28
2022-11-24T21:51:22.263Z,100384.94
2022-11-24T21:54:39.626Z,100387.09
2022-11-24T21:57:48.214Z,100381.88
2022-11-24T22:01:06.604Z,100391.41
2022-11-24T22:04:21.251Z,100329.25
2022-11-24T22:07:32.060Z,100390.41
2022-11-24T22:10:48.286Z,100387.28
2022-11-24T22:13:52.126Z,100393.59
2022-11-24T22:17:07.262Z,100398.78
2022-11-24T22:20:22.335Z,100404.13
2022-11-24T22:23:31.357Z,100403.16
2022-11-24T22:26:46.366Z,100417.34
2022-11-24T22:29:54.425Z,100421.13
2022-11-24T22:33:02.874Z,100432.78
2022-11-24T22:36:11.257Z,100432.19
2022-11-24T22:39:35.266Z,100432.91
2022-11-24T22:42:43.254Z,100445.41
2022-11-24T22:45:54.892Z,100446.47
2022-11-24T22:49:09.226Z,100446.03
2022-11-24T22:52:17.305Z,100450.34
2022-11-24T22:55:25.937Z,100452.66
2022-11-24T22:58:34.214Z,100451.94
2022-11-24T23:01:49.297Z,100456.22
2022-11-24T23:04:57.327Z,100458.03
2022-11-24T23:08:12.558Z,100457.53
2022-11-24T23:11:29.128Z,100459.00
2022-11-24T23:14:46.283Z,100462.88
2022-11-24T23:17:50.289Z,100462.12
2022-11-24T23:21:18.382Z,100462.88
2022-11-24T23:24:26.894Z,100463.81
2022-11-24T23:27:41.273Z,100457.91
2022-11-24T23:30:43.455Z,100478.28
2022-11-24T23:33:58.278Z,100474.50
2022-11-24T23:37:06.287Z,100481.06
2022-11-24T23:40:21.334Z,100485.59
2022-11-24T23:43:23.689Z,100486.31
2022-11-24T23:46:38.293Z,100487.75
2022-11-24T23:49:42.183Z,100481.94
2022-11-24T23:52:57.347Z,100488.31
2022-11-24T23:55:59.217Z,100486.19
2022-11-24T23:59:17.357Z,100484.69
